Time;durP1;ratioP1;P1;durP2;ratioP2;P2;SDS_P1;SDS_P2;PMS_P1;PMS_P2;Temp;Humidity;BMP_temperature;BMP_pressure;BME280_temperature;BME280_humidity;BME280_pressure;Samples;Min_cycle;Max_cycle;Signal;HPM_P1;HPM_P2
2021/05/06 00:08:17;;;;;;;;;;;;;;;;;;;;;
2021/05/06 00:31:15;;;;;;;6.95;3.65;;;;;;;9.46;53.96;98253.00;262928;1100;114978;-72
2021/05/06 00:36:17;;;;;;;8.65;3.10;;;;;;;9.44;53.65;98257.55;263185;1102;114325;-73
2021/05/06 01:08:19;;;;;;;3.70;2.10;;;;;;;9.20;53.18;98300.81;262843;1104;114690;-69
2021/05/06 01:13:27;;;;;;;4.25;2.20;;;;;;;9.15;52.86;98302.91;263086;1099;114417;-68
2021/05/06 01:18:30;;;;;;;4.85;2.23;;;;;;;9.13;52.41;98306.61;262837;1104;115179;-69
2021/05/06 01:23:38;;;;;;;6.20;2.45;;;;;;;9.09;52.83;98315.75;262954;1100;114608;-72
2021/05/06 01:28:50;;;;;;;2.98;1.75;;;;;;;9.08;52.34;98325.52;262617;1102;114522;-69
2021/05/06 01:34:19;;;;;;;4.93;2.35;;;;;;;9.06;52.57;98321.26;263256;1104;114323;-70
2021/05/06 02:01:20;;;;;;;3.63;2.28;;;;;;;8.86;52.30;98312.82;262562;1105;114577;-69
2021/05/06 02:06:16;;;;;;;6.48;1.95;;;;;;;8.83;52.48;98314.83;262748;1101;114361;-68
2021/05/06 02:11:21;;;;;;;3.57;2.17;;;;;;;8.80;52.51;98317.69;263267;1104;114795;-70
2021/05/06 02:16:41;;;;;;;7.13;2.00;;;;;;;8.74;51.88;98335.72;262517;1101;114742;-67
2021/05/06 02:21:45;;;;;;;4.60;2.15;;;;;;;8.70;52.28;98333.38;262623;1104;115308;-68
2021/05/06 02:26:48;;;;;;;5.43;2.13;;;;;;;8.61;52.01;98349.89;263382;1104;114256;-69
2021/05/06 02:31:50;;;;;;;4.48;1.80;;;;;;;8.53;52.14;98351.25;263468;1104;114737;-68
2021/05/06 02:37:28;;;;;;;4.35;2.10;;;;;;;8.48;52.11;98350.67;262593;1100;115326;-72
2021/05/06 02:42:43;;;;;;;6.58;2.35;;;;;;;8.39;52.06;98350.41;262526;1100;114408;-73
2021/05/06 02:47:51;;;;;;;7.05;2.30;;;;;;;8.42;52.56;98347.56;262545;1105;114356;-76
2021/05/06 02:53:12;;;;;;;4.00;2.03;;;;;;;8.41;52.17;98357.33;262828;1101;114398;-80
2021/05/06 03:03:48;;;;;;;6.98;2.93;;;;;;;8.36;52.55;98361.20;262732;1099;114670;-79
2021/05/06 03:09:58;;;;;;;7.70;2.75;;;;;;;8.33;52.18;98372.00;262495;1105;114659;-81
2021/05/06 03:14:52;;;;;;;8.60;2.78;;;;;;;8.31;52.29;98380.04;261853;1099;114878;-81
2021/05/06 03:25:21;;;;;;;4.40;2.23;;;;;;;8.32;52.53;98394.98;263163;1100;114595;-77
2021/05/06 03:31:00;;;;;;;;;;;;;;;8.31;52.34;98406.55;262617;1105;114624;-78
2021/05/06 04:21:27;;;;;;;4.45;2.23;;;;;;;8.16;53.07;98493.18;263184;1100;114280;-86
2021/05/06 05:07:05;;;;;;;4.50;2.57;;;;;;;8.27;52.77;98533.13;262543;1100;114134;-94
2021/05/06 05:12:31;;;;;;;4.60;2.50;;;;;;;8.23;53.19;98536.92;263146;1104;114249;-84
2021/05/06 05:27:58;;;;;;;4.18;2.73;;;;;;;8.50;53.11;98537.06;263017;1100;114230;-90
2021/05/06 05:33:06;;;;;;;4.95;2.40;;;;;;;8.50;52.27;98542.37;262927;1100;114634;-85
2021/05/06 05:59:19;;;;;;;4.95;2.58;;;;;;;8.94;52.33;98561.78;262839;1100;114302;-89
2021/05/06 06:04:25;;;;;;;7.23;2.17;;;;;;;9.00;52.07;98548.97;263369;1104;114122;-90
2021/05/06 06:09:27;;;;;;;7.80;2.38;;;;;;;9.10;51.80;98546.56;263338;1097;114774;-87
2021/05/06 06:19:53;;;;;;;8.45;2.23;;;;;;;9.27;51.25;98542.81;262808;1100;114259;-86
2021/05/06 06:24:56;;;;;;;4.28;2.10;;;;;;;9.30;50.81;98541.78;262547;1104;114540;-84
2021/05/06 06:30:01;;;;;;;6.25;2.28;;;;;;;9.39;51.63;98535.88;262796;1100;114041;-93
2021/05/06 06:35:07;;;;;;;4.03;1.93;;;;;;;9.48;51.17;98553.88;263293;1104;114051;-89
2021/05/06 06:40:10;;;;;;;5.23;2.35;;;;;;;9.54;50.79;98549.95;262967;1100;114544;-89
2021/05/06 06:45:16;;;;;;;2.60;1.70;;;;;;;9.57;50.66;98553.25;263199;1104;114338;-89
2021/05/06 06:50:21;;;;;;;4.73;2.08;;;;;;;9.63;50.26;98546.69;263247;1100;114554;-83
2021/05/06 06:55:55;;;;;;;;;;;;;;;;;;;;;
2021/05/06 07:01:51;;;;;;;4.60;2.05;;;;;;;9.73;50.44;98539.81;262922;1102;114465;-90
2021/05/06 07:06:56;;;;;;;7.53;2.10;;;;;;;9.78;50.12;98550.97;263426;1104;114462;-89
2021/05/06 07:12:20;;;;;;;7.33;2.30;;;;;;;9.86;49.93;98556.65;262756;1102;114377;-92
2021/05/06 07:17:27;;;;;;;4.95;2.00;;;;;;;9.94;49.58;98543.68;262630;1105;114351;-88
2021/05/06 07:22:32;;;;;;;4.03;1.73;;;;;;;10.04;49.53;98546.58;262702;1101;114452;-79
2021/05/06 07:27:36;;;;;;;4.43;1.80;;;;;;;10.17;48.71;98539.47;263286;1104;115089;-83
2021/05/06 07:32:44;;;;;;;3.08;1.68;;;;;;;10.34;49.15;98518.88;262974;1100;114631;-84
2021/05/06 07:37:49;;;;;;;4.50;1.70;;;;;;;10.51;48.67;98520.37;262861;1104;115064;-85
2021/05/06 07:42:55;;;;;;;3.03;1.80;;;;;;;10.68;48.93;98517.36;262723;1100;114693;-84
2021/05/06 07:48:01;;;;;;;3.45;1.85;;;;;;;10.83;48.17;98521.58;262615;1104;114501;-85
2021/05/06 07:53:12;;;;;;;5.73;1.68;;;;;;;10.98;48.34;98529.45;263247;1100;115211;-77
2021/05/06 07:58:19;;;;;;;4.75;1.85;;;;;;;11.05;47.48;98512.91;263052;1104;114736;-80
2021/05/06 08:03:22;;;;;;;5.90;1.85;;;;;;;11.09;47.21;98516.20;262655;1101;115636;-87
2021/05/06 08:08:25;;;;;;;5.30;1.48;;;;;;;11.21;47.83;98514.45;262866;1104;115033;-89
2021/05/06 08:13:28;;;;;;;3.60;1.87;;;;;;;11.33;47.31;98502.91;262918;1100;114604;-79
2021/05/06 08:18:31;;;;;;;5.08;1.60;;;;;;;11.43;46.45;98511.92;262942;1104;114750;-77
2021/05/06 08:23:34;;;;;;;3.63;1.63;;;;;;;11.51;46.32;98506.86;262945;1100;114602;-85
2021/05/06 08:28:37;;;;;;;4.35;1.73;;;;;;;11.55;45.79;98521.68;262643;1105;114705;-83
2021/05/06 08:33:41;;;;;;;3.73;1.60;;;;;;;11.52;45.19;98511.25;262743;1102;114579;-85
2021/05/06 08:38:44;;;;;;;3.88;1.58;;;;;;;11.51;45.33;98516.67;262914;1104;114837;-87
2021/05/06 08:43:55;;;;;;;5.58;1.60;;;;;;;11.61;45.43;98517.69;262947;1102;114792;-88
2021/05/06 08:48:58;;;;;;;3.53;1.83;;;;;;;11.67;44.90;98519.91;262865;1104;114640;-82
2021/05/06 08:54:01;;;;;;;5.70;2.30;;;;;;;11.68;44.59;98508.27;262838;1101;114544;-82
2021/05/06 08:59:05;;;;;;;8.18;2.15;;;;;;;11.71;44.26;98512.52;263012;1104;114482;-82
2021/05/06 09:04:08;;;;;;;4.73;1.98;;;;;;;11.68;44.11;98510.93;263102;1100;114872;-83
2021/05/06 09:09:17;;;;;;;4.43;2.00;;;;;;;11.74;43.99;98494.48;262823;1105;114404;-82
2021/05/06 09:14:43;;;;;;;5.33;2.13;;;;;;;11.82;43.85;98488.59;263112;1100;114824;-89
2021/05/06 09:19:55;;;;;;;3.50;1.90;;;;;;;11.87;44.36;98493.59;263404;1104;114744;-88
2021/05/06 09:25:23;;;;;;;5.53;2.00;;;;;;;11.97;44.01;98491.92;262895;1100;114550;-88
2021/05/06 09:30:26;;;;;;;2.73;1.70;;;;;;;11.99;43.22;98493.52;263180;1104;115400;-82
2021/05/06 09:35:29;;;;;;;2.48;1.50;;;;;;;11.95;42.95;98489.36;263513;1099;114513;-81
2021/05/06 09:40:47;;;;;;;5.55;1.60;;;;;;;12.07;42.74;98492.92;263319;1104;114506;-88
2021/05/06 09:45:50;;;;;;;3.63;1.75;;;;;;;12.11;42.88;98486.38;262980;1100;114609;-88
2021/05/06 09:51:01;;;;;;;2.10;1.53;;;;;;;12.19;43.04;98483.11;262661;1105;114548;-81
2021/05/06 09:56:04;;;;;;;4.83;1.85;;;;;;;12.44;42.69;98480.23;263000;1101;115334;-80
2021/05/06 10:01:11;;;;;;;3.40;1.20;;;;;;;12.67;42.12;98481.09;263153;1104;114814;-88
2021/05/06 10:06:18;;;;;;;2.78;1.08;;;;;;;12.91;41.40;98461.41;263113;1101;114903;-88
2021/05/06 10:11:22;;;;;;;2.90;1.10;;;;;;;12.99;41.20;98466.97;262700;1105;114406;-88
2021/05/06 10:16:26;;;;;;;2.05;0.88;;;;;;;13.06;40.81;98480.67;263121;1100;114609;-88
2021/05/06 10:21:29;;;;;;;3.28;1.35;;;;;;;12.94;39.99;98482.50;262860;1104;115119;-90
2021/05/06 10:26:32;;;;;;;2.25;1.08;;;;;;;12.92;39.87;98479.97;262513;1101;114678;-80
2021/05/06 10:31:39;;;;;;;4.00;1.30;;;;;;;12.93;40.66;98497.68;263038;1104;114519;-82
2021/05/06 10:36:44;;;;;;;7.38;1.35;;;;;;;13.18;40.91;98485.03;263036;1100;114383;-87
2021/05/06 10:41:47;;;;;;;;;;;;;;;13.47;40.51;98471.95;263361;1104;114661;-80
2021/05/06 10:47:02;;;;;;;2.25;0.90;;;;;;;13.59;38.89;98491.50;263139;1100;100942;-80
2021/05/06 10:52:09;;;;;;;2.05;1.08;;;;;;;13.57;39.54;98486.26;262948;1104;114491;-86
2021/05/06 10:57:14;;;;;;;2.63;1.10;;;;;;;13.55;38.75;98501.56;262857;1100;114592;-80
2021/05/06 11:02:33;;;;;;;1.67;1.10;;;;;;;13.48;38.58;98497.70;263112;1104;114387;-79
2021/05/06 11:07:37;;;;;;;2.05;1.10;;;;;;;13.40;38.88;98494.83;263169;1100;114423;-80
2021/05/06 11:12:42;;;;;;;1.40;1.00;;;;;;;13.35;38.42;98492.55;263016;1099;114893;-79
2021/05/06 11:17:45;;;;;;;2.88;1.35;;;;;;;13.33;38.68;98491.81;263058;1102;115120;-87
2021/05/06 11:22:55;;;;;;;2.78;1.23;;;;;;;13.30;39.24;98505.42;262928;1104;114420;-87
2021/05/06 11:28:06;;;;;;;2.70;1.00;;;;;;;13.25;38.76;98496.95;262396;1098;114567;-80
2021/05/06 11:33:25;;;;;;;2.48;1.35;;;;;;;13.16;38.59;98493.16;263098;1104;115196;-81
2021/05/06 11:38:37;;;;;;;2.63;1.30;;;;;;;13.13;39.51;98490.73;262772;1101;114159;-88
2021/05/06 11:43:52;;;;;;;2.10;1.33;;;;;;;13.08;38.94;98476.06;262564;1100;114493;-86
2021/05/06 11:49:04;;;;;;;3.50;1.58;;;;;;;13.03;39.07;98493.30;262994;1104;114703;-88
2021/05/06 11:54:17;;;;;;;3.63;1.50;;;;;;;13.07;39.52;98479.69;262947;1104;114371;-87
2021/05/06 11:59:30;;;;;;;3.37;1.37;;;;;;;13.06;39.71;98478.00;262960;1098;114694;-88
2021/05/06 12:04:37;;;;;;;4.20;1.30;;;;;;;13.23;39.33;98466.78;262682;1100;114453;-88
2021/05/06 12:09:43;;;;;;;3.10;1.30;;;;;;;13.58;39.59;98447.00;262653;1105;114464;-88
2021/05/06 12:14:48;;;;;;;3.85;1.60;;;;;;;13.95;40.11;98445.58;262869;1099;114560;-86
2021/05/06 12:19:52;;;;;;;3.35;1.65;;;;;;;14.24;39.53;98455.63;262670;1105;114548;-81
2021/05/06 12:24:55;;;;;;;3.25;1.68;;;;;;;14.19;39.13;98444.45;262627;1105;114756;-79
2021/05/06 12:30:00;;;;;;;4.28;1.60;;;;;;;13.98;38.71;98446.30;262634;1102;115040;-88
2021/05/06 12:35:03;;;;;;;2.95;1.60;;;;;;;13.77;39.18;98435.61;263127;1104;114615;-87
2021/05/06 12:40:11;;;;;;;2.48;1.43;;;;;;;13.74;39.36;98444.73;262709;1101;114961;-86
2021/05/06 12:45:15;;;;;;;4.00;1.60;;;;;;;13.80;39.56;98427.33;262753;1104;114499;-80
2021/05/06 12:50:25;;;;;;;2.38;1.58;;;;;;;13.95;39.10;98410.80;262732;1097;114484;-87
2021/05/06 12:55:31;;;;;;;2.93;1.65;;;;;;;14.07;39.80;98405.39;262659;1104;115335;-87
2021/05/06 13:00:36;;;;;;;2.18;1.23;;;;;;;14.33;39.74;98398.59;262783;1102;114453;-84
2021/05/06 13:05:44;;;;;;;4.03;1.45;;;;;;;14.34;39.71;98402.98;262850;1105;114539;-83
2021/05/06 13:10:47;;;;;;;5.50;1.60;;;;;;;14.41;39.70;98387.23;262628;1102;114660;-84
2021/05/06 13:15:53;;;;;;;2.60;1.13;;;;;;;14.43;39.17;98386.12;262780;1105;114671;-84
2021/05/06 13:20:56;;;;;;;3.90;1.57;;;;;;;14.40;38.93;98394.42;262683;1100;114634;-84
2021/05/06 13:26:01;;;;;;;2.60;1.40;;;;;;;14.38;39.30;98396.38;262771;1104;114704;-82
2021/05/06 13:31:44;;;;;;;2.30;1.50;;;;;;;14.50;39.34;98394.46;262649;1100;114580;-83
2021/05/06 13:36:45;;;;;;;3.38;1.60;;;;;;;14.38;39.10;98404.41;262733;1100;115046;-84
2021/05/06 13:41:48;;;;;;;5.60;1.50;;;;;;;14.20;39.47;98398.00;262994;1104;114541;-89
2021/05/06 13:46:55;;;;;;;8.28;1.73;;;;;;;14.00;39.25;98409.58;262617;1100;115613;-80
2021/05/06 13:52:04;;;;;;;2.03;1.38;;;;;;;13.81;39.72;98384.39;262817;1104;115136;-82
2021/05/06 13:57:07;;;;;;;3.90;1.50;;;;;;;13.93;41.04;98387.86;262641;1100;115043;-82
2021/05/06 14:02:10;;;;;;;2.88;1.48;;;;;;;14.22;40.55;98371.92;262953;1104;114784;-84
2021/05/06 14:07:16;;;;;;;2.50;1.60;;;;;;;14.51;41.06;98376.59;262830;1099;115198;-82
2021/05/06 14:12:21;;;;;;;3.40;1.60;;;;;;;14.52;40.55;98376.44;262824;1104;114605;-81
2021/05/06 14:17:26;;;;;;;7.00;2.05;;;;;;;14.46;39.87;98370.75;263054;1100;114478;-84
2021/05/06 14:22:29;;;;;;;4.85;2.20;;;;;;;14.40;39.10;98361.42;262577;1101;115243;-84
2021/05/06 14:27:34;;;;;;;5.38;1.50;;;;;;;14.56;39.58;98343.05;263283;1100;115007;-85
2021/05/06 14:32:37;;;;;;;4.30;1.50;;;;;;;14.69;38.92;98352.67;262888;1104;114579;-81
2021/05/06 14:37:40;;;;;;;4.18;1.70;;;;;;;14.64;38.27;98337.02;262704;1100;115387;-83
2021/05/06 14:42:44;;;;;;;5.90;1.30;;;;;;;14.61;38.51;98342.66;263403;1100;115213;-84
2021/05/06 14:47:50;;;;;;;3.38;1.58;;;;;;;14.53;38.57;98342.47;262735;1103;114689;-83
2021/05/06 14:52:54;;;;;;;3.45;1.30;;;;;;;14.61;38.18;98334.62;262675;1100;115567;-83
2021/05/06 14:57:57;;;;;;;2.55;1.50;;;;;;;14.74;38.03;98323.63;262688;1105;114713;-82
2021/05/06 15:03:03;;;;;;;3.58;1.60;;;;;;;14.79;38.06;98334.78;262923;1101;114560;-87
2021/05/06 15:08:06;;;;;;;5.90;1.50;;;;;;;14.80;38.38;98321.23;262934;1104;115214;-86
2021/05/06 15:13:11;;;;;;;2.27;1.20;;;;;;;14.86;38.46;98311.80;262524;1101;114840;-81
2021/05/06 15:18:14;;;;;;;;;;;;;;;14.83;37.91;98302.20;262606;1106;114591;-89
2021/05/06 15:23:16;;;;;;;5.33;1.35;;;;;;;14.78;38.67;98299.12;262890;1101;101206;-82
2021/05/06 15:28:19;;;;;;;4.00;1.30;;;;;;;14.85;38.73;98310.12;262583;1105;114605;-81
2021/05/06 15:33:30;;;;;;;2.67;1.50;;;;;;;14.90;38.45;98287.26;262797;1100;114496;-81
2021/05/06 15:38:34;;;;;;;4.53;1.55;;;;;;;15.00;38.68;98276.55;262723;1104;114897;-80
2021/05/06 15:43:43;;;;;;;5.00;1.60;;;;;;;15.13;38.26;98279.78;263160;1100;114820;-82
2021/05/06 15:48:50;;;;;;;3.60;1.63;;;;;;;15.32;38.14;98278.92;262578;1105;115056;-82
2021/05/06 15:53:53;;;;;;;4.68;1.63;;;;;;;15.72;37.99;98268.95;262758;1100;114933;-83
2021/05/06 15:58:59;;;;;;;2.95;1.30;;;;;;;16.02;37.77;98266.00;263062;1104;115077;-81
2021/05/06 16:04:08;;;;;;;2.33;1.38;;;;;;;16.17;37.42;98254.77;262582;1103;114683;-83
2021/05/06 16:09:13;;;;;;;1.83;1.10;;;;;;;16.48;36.93;98231.97;262593;1105;115410;-83
2021/05/06 16:14:16;;;;;;;2.98;1.43;;;;;;;16.77;36.64;98234.45;262718;1100;114548;-83
2021/05/06 16:19:19;;;;;;;3.17;1.57;;;;;;;16.66;36.46;98242.72;263327;1100;114881;-88
2021/05/06 16:24:23;;;;;;;4.10;1.60;;;;;;;16.37;36.35;98232.20;262963;1100;114941;-87
2021/05/06 16:29:26;;;;;;;5.53;1.60;;;;;;;16.10;36.31;98246.49;262884;1104;114796;-87
2021/05/06 16:34:34;;;;;;;5.20;1.68;;;;;;;15.85;36.77;98224.70;263251;1100;114749;-82
2021/05/06 16:45:06;;;;;;;4.75;1.78;;;;;;;15.42;36.83;98217.23;262674;1101;114796;-87
2021/05/06 16:50:10;;;;;;;4.30;1.55;;;;;;;15.26;36.61;98225.88;262800;1104;115285;-87
2021/05/06 16:55:15;;;;;;;7.48;1.70;;;;;;;15.09;36.84;98229.30;263003;1100;115369;-88
2021/05/06 17:00:20;;;;;;;4.83;1.90;;;;;;;14.92;36.97;98225.52;263390;1104;115015;-88
2021/05/06 17:05:23;;;;;;;4.30;1.60;;;;;;;14.77;37.30;98226.92;262609;1101;114881;-86
2021/05/06 17:10:26;;;;;;;4.35;1.70;;;;;;;14.65;37.32;98228.91;262596;1105;114844;-82
2021/05/06 17:15:30;;;;;;;4.25;2.00;;;;;;;14.55;37.68;98212.83;263106;1100;115222;-81
2021/05/06 17:20:33;;;;;;;5.75;2.00;;;;;;;14.48;38.02;98200.13;262644;1105;114769;-83
2021/05/06 17:25:36;;;;;;;7.83;1.90;;;;;;;14.44;37.74;98218.30;262815;1100;115365;-82
2021/05/06 17:30:40;;;;;;;3.10;1.95;;;;;;;14.40;38.32;98216.86;263280;1104;114547;-82
2021/05/06 17:35:43;;;;;;;5.33;2.10;;;;;;;14.38;37.74;98217.02;263116;1100;115283;-82
2021/05/06 17:40:46;;;;;;;7.25;2.25;;;;;;;14.36;38.50;98208.27;262812;1104;115239;-81
2021/05/06 17:45:52;;;;;;;8.08;1.98;;;;;;;14.32;38.60;98214.89;262644;1100;114589;-82
2021/05/06 17:50:57;;;;;;;8.23;2.28;;;;;;;14.29;38.37;98206.30;263285;1104;114674;-82
2021/05/06 17:56:01;;;;;;;4.43;2.10;;;;;;;14.28;38.20;98204.61;262784;1101;114503;-83
2021/05/06 18:01:05;;;;;;;;;;;;;;;14.27;38.04;98210.96;262691;1105;115049;-81
2021/05/06 18:06:08;;;;;;;5.63;2.30;;;;;;;14.23;38.21;98209.52;263320;1099;102846;-84
2021/05/06 18:16:29;;;;;;;;;;;;;;;14.10;38.57;98216.00;263306;1100;114556;-79
2021/05/06 18:21:38;;;;;;;5.65;2.18;;;;;;;14.05;39.11;98215.55;263234;1105;101198;-86
2021/05/06 18:26:42;;;;;;;5.40;2.20;;;;;;;14.01;38.72;98218.64;263322;1100;114653;-83
2021/05/06 18:31:45;;;;;;;3.73;1.63;;;;;;;13.95;39.26;98225.38;263390;1104;115649;-80
2021/05/06 18:36:48;;;;;;;5.05;1.85;;;;;;;13.90;39.37;98222.28;263004;1100;114746;-79
2021/05/06 18:41:51;;;;;;;9.78;2.10;;;;;;;13.82;39.18;98225.61;263029;1104;114631;-79
2021/05/06 18:47:03;;;;;;;7.08;1.95;;;;;;;13.77;39.29;98225.19;263101;1101;114991;-79
2021/05/06 18:52:06;;;;;;;4.75;2.10;;;;;;;13.72;39.88;98235.42;263390;1104;114619;-80
2021/05/06 18:57:09;;;;;;;6.55;2.00;;;;;;;13.66;39.77;98236.83;263010;1100;114403;-80
2021/05/06 19:02:12;;;;;;;4.25;1.93;;;;;;;13.61;39.80;98238.20;262975;1105;114441;-79
2021/05/06 19:07:14;;;;;;;4.60;2.40;;;;;;;13.52;40.46;98241.66;262597;1100;114384;-80
2021/05/06 19:12:18;;;;;;;4.67;2.67;;;;;;;13.43;40.06;98249.52;262782;1105;115126;-79
2021/05/06 19:17:21;;;;;;;6.23;3.10;;;;;;;13.38;40.56;98251.76;262966;1100;114716;-82
2021/05/06 19:22:24;;;;;;;5.83;3.00;;;;;;;13.34;41.04;98252.13;262872;1104;115254;-82
2021/05/06 19:27:28;;;;;;;7.70;3.70;;;;;;;13.25;41.11;98262.64;262900;1100;114532;-77
2021/05/06 19:32:31;;;;;;;6.65;3.48;;;;;;;13.17;41.19;98259.73;262875;1105;114808;-85
2021/05/06 19:37:34;;;;;;;9.00;3.23;;;;;;;13.11;41.85;98254.93;262618;1100;114747;-83
2021/05/06 19:42:43;;;;;;;4.77;2.97;;;;;;;13.06;42.14;98266.97;260040;1104;114694;-85
2021/05/06 19:47:46;;;;;;;6.33;3.30;;;;;;;12.96;41.75;98262.40;262970;1100;114557;-83
2021/05/06 19:52:50;;;;;;;7.17;3.27;;;;;;;12.94;42.17;98263.50;262793;1105;114573;-81
2021/05/06 19:57:52;;;;;;;7.78;3.70;;;;;;;12.91;42.10;98261.95;262526;1101;114837;-82
2021/05/06 20:02:56;;;;;;;5.60;2.88;;;;;;;12.87;42.40;98262.32;262975;1104;114638;-82
2021/05/06 20:07:59;;;;;;;8.05;3.48;;;;;;;12.84;42.13;98251.89;262979;1100;114885;-83
2021/05/06 20:13:06;;;;;;;6.30;3.43;;;;;;;12.82;42.70;98245.86;261819;1104;114759;-84
2021/05/06 20:18:10;;;;;;;8.03;3.77;;;;;;;12.79;43.28;98242.45;263311;1099;114358;-81
2021/05/06 20:23:13;;;;;;;5.50;3.40;;;;;;;12.78;43.05;98234.59;262888;1104;114713;-82
2021/05/06 20:28:17;;;;;;;8.05;3.80;;;;;;;12.78;43.52;98231.91;263113;1101;114917;-82
2021/05/06 20:33:20;;;;;;;10.47;3.70;;;;;;;12.79;43.01;98228.27;262924;1104;215038;-82
2021/05/06 20:38:24;;;;;;;10.68;3.90;;;;;;;12.76;43.08;98218.67;263088;1100;115192;-82
2021/05/06 20:43:30;;;;;;;5.77;3.63;;;;;;;12.73;43.81;98213.59;263319;1104;114830;-81
2021/05/06 20:48:35;;;;;;;11.45;4.20;;;;;;;12.71;43.94;98204.05;262875;1102;116698;-82
2021/05/06 20:53:37;;;;;;;10.05;4.60;;;;;;;12.69;43.76;98211.32;262978;1104;115006;-81
2021/05/06 20:58:40;;;;;;;6.65;4.05;;;;;;;12.68;43.87;98190.95;262916;1101;114990;-81
2021/05/06 21:03:43;;;;;;;9.03;3.90;;;;;;;12.65;43.93;98193.88;263054;1104;115285;-81
2021/05/06 21:08:46;;;;;;;8.50;4.05;;;;;;;12.65;44.64;98188.53;262974;1100;114884;-83
2021/05/06 21:13:49;;;;;;;7.35;3.95;;;;;;;12.64;43.91;98173.50;262791;1105;114622;-82
2021/05/06 21:18:52;;;;;;;7.90;4.10;;;;;;;12.63;44.83;98158.44;262763;1101;114882;-82
2021/05/06 21:23:55;;;;;;;11.80;4.30;;;;;;;12.61;45.11;98155.92;263101;1099;114995;-83
2021/05/06 21:28:58;;;;;;;12.90;4.80;;;;;;;12.62;45.19;98151.42;263208;1100;114701;-83
2021/05/06 21:34:01;;;;;;;6.48;3.93;;;;;;;12.63;44.64;98143.27;262483;1104;115480;-80
2021/05/06 21:39:05;;;;;;;9.03;3.65;;;;;;;12.61;44.52;98137.23;262654;1102;114721;-82
2021/05/06 21:44:09;;;;;;;6.28;3.48;;;;;;;12.64;44.54;98133.47;262958;1100;114737;-82
2021/05/06 21:49:11;;;;;;;7.95;3.63;;;;;;;12.64;44.74;98125.45;262937;1102;114923;-81
2021/05/06 21:54:15;;;;;;;7.53;3.48;;;;;;;12.66;44.77;98120.81;263147;1104;114645;-86
2021/05/06 21:59:18;;;;;;;6.53;3.70;;;;;;;12.66;44.84;98115.48;262741;1099;114507;-82
2021/05/06 22:04:21;;;;;;;6.03;3.40;;;;;;;12.67;44.38;98104.69;262970;1105;114937;-87
2021/05/06 22:09:28;;;;;;;7.68;3.70;;;;;;;12.69;45.09;98104.54;262767;1100;114969;-87
2021/05/06 22:14:32;;;;;;;6.10;3.45;;;;;;;12.69;44.38;98104.54;262968;1104;114705;-85
2021/05/06 22:19:35;;;;;;;8.40;2.73;;;;;;;12.70;44.81;98095.55;262864;1099;114780;-89
2021/05/06 22:24:42;;;;;;;5.23;2.73;;;;;;;12.74;45.04;98105.00;262905;1104;115290;-82
2021/05/06 22:29:45;;;;;;;4.00;2.65;;;;;;;12.71;44.41;98100.77;263091;1100;114750;-86
2021/05/06 22:34:48;;;;;;;5.40;2.70;;;;;;;12.66;44.57;98100.30;263093;1104;114485;-81
2021/05/06 22:39:50;;;;;;;4.28;2.50;;;;;;;12.66;44.57;98100.30;262929;1100;114945;-86
2021/05/06 22:44:53;;;;;;;4.05;2.28;;;;;;;12.66;44.57;98107.47;262594;1105;114894;-82
2021/05/06 22:49:56;;;;;;;5.83;2.50;;;;;;;12.67;44.80;98090.47;262903;1100;114802;-81
2021/05/06 22:54:59;;;;;;;6.43;2.50;;;;;;;12.66;44.77;98099.45;263157;1104;114711;-76
2021/05/06 23:00:23;;;;;;;6.63;2.48;;;;;;;12.61;45.07;98094.52;263007;1100;114494;-77
2021/05/06 23:05:28;;;;;;;5.57;2.50;;;;;;;12.58;45.59;98091.27;263501;1104;114945;-80
2021/05/06 23:10:31;;;;;;;5.68;2.60;;;;;;;12.52;45.28;98087.30;263530;1099;115152;-76
2021/05/06 23:15:34;;;;;;;4.17;2.43;;;;;;;12.47;45.81;98079.69;262596;1104;114523;-79
2021/05/06 23:20:37;;;;;;;4.23;2.48;;;;;;;12.41;46.32;98080.20;263196;1099;115538;-80
2021/05/06 23:25:40;;;;;;;4.00;2.58;;;;;;;12.31;46.14;98073.95;260767;1104;114902;-81
2021/05/06 23:30:43;;;;;;;5.13;2.30;;;;;;;12.28;46.96;98067.05;262498;1100;114963;-81
2021/05/06 23:35:46;;;;;;;4.45;2.50;;;;;;;12.27;47.59;98062.70;262819;1105;114541;-81
2021/05/06 23:40:49;;;;;;;4.53;2.15;;;;;;;12.22;48.15;98064.06;263443;1099;114728;-81
2021/05/06 23:45:52;;;;;;;4.98;2.43;;;;;;;12.17;48.96;98066.28;263463;1104;114677;-80
2021/05/06 23:50:57;;;;;;;5.63;2.70;;;;;;;12.12;48.76;98057.80;259745;1104;114718;-77
2021/05/06 23:56:00;;;;;;;;;;;;;;;12.03;49.52;98057.61;262825;1105;114876;-76
